createdAt,value
2018-09-05T00:02:12.283Z,101469.84
2018-09-05T00:04:40.940Z,101472.52
2018-09-05T00:07:09.652Z,101470.89
2018-09-05T00:09:38.341Z,101469.48
2018-09-05T00:12:07.051Z,101465.58
2018-09-05T00:14:35.815Z,101472.67
2018-09-05T00:17:04.510Z,101464.20
2018-09-05T00:19:33.173Z,101463.31
2018-09-05T00:22:01.371Z,101467.63
2018-09-05T00:24:30.013Z,101463.50
2018-09-05T00:26:59.199Z,101464.84
2018-09-05T00:29:27.874Z,101465.13
2018-09-05T00:31:56.621Z,101462.80
2018-09-05T00:34:25.379Z,101461.42
2018-09-05T00:36:54.033Z,101462.73
2018-09-05T00:39:22.639Z,101461.88
2018-09-05T00:41:51.259Z,101464.48
2018-09-05T00:44:19.990Z,101462.52
2018-09-05T00:46:48.679Z,101461.28
2018-09-05T00:49:17.668Z,101463.19
2018-09-05T00:51:46.331Z,101458.73
2018-09-05T00:54:14.979Z,101464.34
2018-09-05T00:56:43.616Z,101464.58
2018-09-05T00:59:12.259Z,101465.95
2018-09-05T01:01:40.885Z,101458.05
2018-09-05T01:04:09.519Z,101460.48
2018-09-05T01:06:38.112Z,101456.89
2018-09-05T01:09:08.217Z,101460.39
2018-09-05T01:11:36.881Z,101464.75
2018-09-05T01:14:05.607Z,101461.39
2018-09-05T01:16:34.257Z,101465.46
2018-09-05T01:19:02.908Z,101461.06
2018-09-05T01:21:31.638Z,101460.44
2018-09-05T01:24:00.333Z,101462.10
2018-09-05T01:26:28.967Z,101459.34
2018-09-05T01:28:57.596Z,101460.70
2018-09-05T01:31:26.233Z,101462.60
2018-09-05T01:33:54.982Z,101463.17
2018-09-05T01:36:23.626Z,101460.04
2018-09-05T01:38:52.263Z,101463.60
2018-09-05T01:41:21.192Z,101460.47
2018-09-05T01:43:49.840Z,101458.23
2018-09-05T01:46:18.495Z,101456.87
2018-09-05T01:48:47.139Z,101452.44
2018-09-05T01:51:45.667Z,101456.73
2018-09-05T01:54:16.189Z,101453.59
2018-09-05T01:56:45.014Z,101457.50
2018-09-05T01:59:13.780Z,101457.50
2018-09-05T02:01:42.378Z,101448.67
2018-09-05T02:04:11.316Z,101453.19
2018-09-05T02:06:39.929Z,101445.03
2018-09-05T02:09:10.538Z,101446.52
2018-09-05T02:11:39.183Z,101446.48
2018-09-05T02:14:07.812Z,101445.66
2018-09-05T02:16:36.583Z,101444.52
2018-09-05T02:19:05.264Z,101446.95
2018-09-05T02:21:34.174Z,101447.24
2018-09-05T02:24:03.125Z,101449.52
2018-09-05T02:26:31.791Z,101449.02
2018-09-05T02:29:00.429Z,101447.46
2018-09-05T02:31:29.374Z,101446.48
2018-09-05T02:33:58.031Z,101444.06
2018-09-05T02:36:26.709Z,101445.34
2018-09-05T02:38:55.380Z,101441.25
2018-09-05T02:41:24.102Z,101444.59
2018-09-05T02:43:57.994Z,101444.56
2018-09-05T02:46:26.675Z,101439.83
2018-09-05T02:48:55.299Z,101446.95
2018-09-05T02:51:23.921Z,101448.47
2018-09-05T02:53:52.604Z,101450.05
2018-09-05T02:56:23.653Z,101447.47
2018-09-05T02:58:52.581Z,101441.93
2018-09-05T03:01:21.219Z,101446.02
2018-09-05T03:03:49.845Z,101448.63
2018-09-05T03:06:18.769Z,101446.30
2018-09-05T03:08:47.505Z,101443.01
2018-09-05T03:11:16.176Z,101444.33
2018-09-05T03:13:45.021Z,101437.78
2018-09-05T03:16:13.657Z,101448.07
2018-09-05T03:18:42.292Z,101439.77
2018-09-05T03:21:10.968Z,101442.41
2018-09-05T03:23:39.629Z,101441.19
2018-09-05T03:26:08.282Z,101441.88
2018-09-05T03:28:37.237Z,101446.23
2018-09-05T03:31:06.293Z,101448.56
2018-09-05T03:33:35.001Z,101444.16
2018-09-05T03:36:03.647Z,101447.68
2018-09-05T03:38:32.319Z,101453.62
2018-09-05T03:41:00.945Z,101446.59
2018-09-05T03:43:29.609Z,101453.05
2018-09-05T03:45:58.208Z,101452.73
2018-09-05T03:48:26.830Z,101453.17
2018-09-05T03:50:56.819Z,101450.92
2018-09-05T03:53:26.954Z,101453.57
2018-09-05T03:55:56.368Z,101460.59
2018-09-05T03:58:25.060Z,101462.44
2018-09-05T04:00:53.687Z,101460.36
2018-09-05T04:03:22.288Z,101467.96
2018-09-05T04:05:50.959Z,101467.25
2018-09-05T04:08:19.589Z,101463.61
2018-09-05T04:10:48.210Z,101464.87
2018-09-05T04:13:16.855Z,101462.39
2018-09-05T04:15:45.561Z,101461.78
2018-09-05T04:18:14.179Z,101461.19
2018-09-05T04:20:43.135Z,101460.20
2018-09-05T04:23:11.759Z,101461.20
2018-09-05T04:25:40.429Z,101455.04
2018-09-05T04:28:09.063Z,101455.82
2018-09-05T04:30:37.709Z,101459.21
2018-09-05T04:33:06.374Z,101453.68
2018-09-05T04:35:35.036Z,101452.57
2018-09-05T04:38:03.640Z,101453.35
2018-09-05T04:40:32.261Z,101454.41
2018-09-05T04:43:00.905Z,101453.52
2018-09-05T04:45:30.322Z,101455.66
2018-09-05T04:47:58.932Z,101456.19
2018-09-05T04:50:27.645Z,101461.05
2018-09-05T04:52:56.284Z,101453.41
2018-09-05T04:55:24.901Z,101450.49
2018-09-05T04:57:53.534Z,101453.58
2018-09-05T05:00:22.228Z,101459.96
2018-09-05T05:02:50.942Z,101455.52
2018-09-05T05:05:19.597Z,101463.94
2018-09-05T05:07:49.352Z,101460.44
2018-09-05T05:10:20.275Z,101470.02
2018-09-05T05:12:48.881Z,101469.69
2018-09-05T05:15:17.677Z,101465.66
2018-09-05T05:17:46.293Z,101476.02
2018-09-05T05:20:14.918Z,101471.37
2018-09-05T05:22:43.572Z,101472.83
2018-09-05T05:25:12.597Z,101477.91
2018-09-05T05:27:41.245Z,101477.95
2018-09-05T05:30:09.889Z,101477.52
2018-09-05T05:32:38.544Z,101475.91
2018-09-05T05:35:07.194Z,101475.91
2018-09-05T05:37:35.934Z,101475.95
2018-09-05T05:40:07.272Z,101473.58
2018-09-05T05:42:37.010Z,101476.97
2018-09-05T05:45:06.325Z,101482.20
2018-09-05T05:47:35.289Z,101480.98
2018-09-05T05:50:04.346Z,101491.70
2018-09-05T05:52:33.480Z,101491.80
2018-09-05T05:55:03.014Z,101484.58
2018-09-05T05:57:31.995Z,101490.20
2018-09-05T06:00:00.604Z,101496.58
2018-09-05T06:02:29.281Z,101502.69
2018-09-05T06:04:58.004Z,101502.02
2018-09-05T06:07:26.751Z,101504.25
2018-09-05T06:09:55.348Z,101510.82
2018-09-05T06:12:24.274Z,101506.50
2018-09-05T06:14:53.179Z,101509.69
2018-09-05T06:17:21.901Z,101518.80
2018-09-05T06:19:50.590Z,101517.05
2018-09-05T06:22:19.272Z,101515.37
2018-09-05T06:24:48.083Z,101510.73
2018-09-05T06:27:16.724Z,101517.41
2018-09-05T06:29:45.403Z,101525.78
2018-09-05T06:32:14.032Z,101521.08
2018-09-05T06:34:42.730Z,101523.61
2018-09-05T06:37:11.494Z,101530.44
2018-09-05T06:39:42.351Z,101525.45
2018-09-05T06:42:11.042Z,101521.02
2018-09-05T06:44:39.658Z,101521.72
2018-09-05T06:47:08.307Z,101520.21
2018-09-05T06:49:36.978Z,101520.56
2018-09-05T06:52:05.633Z,101520.05
2018-09-05T06:54:34.248Z,101523.75
2018-09-05T06:57:03.052Z,101521.97
2018-09-05T06:59:31.632Z,101521.67
2018-09-05T07:02:00.382Z,101525.33
2018-09-05T07:04:29.111Z,101521.39
2018-09-05T07:06:57.825Z,101523.42
2018-09-05T07:09:26.742Z,101513.44
2018-09-05T07:11:55.446Z,101514.00
2018-09-05T07:14:24.202Z,101512.42
2018-09-05T07:16:53.006Z,101516.83
2018-09-05T07:19:21.722Z,101515.80
2018-09-05T07:21:50.492Z,101519.92
2018-09-05T07:24:19.170Z,101519.22
2018-09-05T07:26:47.957Z,101516.78
2018-09-05T07:29:16.609Z,101521.76
2018-09-05T07:31:45.271Z,101521.86
2018-09-05T07:34:13.919Z,101519.47
2018-09-05T07:36:42.607Z,101511.28
2018-09-05T07:39:11.560Z,101511.05
2018-09-05T07:41:40.808Z,101524.53
2018-09-05T07:44:09.506Z,101516.06
2018-09-05T07:46:38.239Z,101523.77
2018-09-05T07:49:07.236Z,101516.11
2018-09-05T07:51:35.977Z,101513.69
2018-09-05T07:54:04.682Z,101519.75
2018-09-05T07:56:33.484Z,101520.03
2018-09-05T07:59:02.220Z,101519.48
2018-09-05T08:01:31.057Z,101519.50
2018-09-05T08:04:00.022Z,101513.16
2018-09-05T08:06:28.676Z,101518.63
2018-09-05T08:08:57.355Z,101517.55
2018-09-05T08:11:25.972Z,101516.44
2018-09-05T08:13:54.655Z,101521.31
2018-09-05T08:16:23.524Z,101517.19
2018-09-05T08:18:52.207Z,101524.58
2018-09-05T08:21:20.861Z,101524.19
2018-09-05T08:23:49.520Z,101519.00
2018-09-05T08:26:18.226Z,101515.58
2018-09-05T08:28:46.826Z,101515.03
2018-09-05T08:31:15.479Z,101514.00
2018-09-05T08:33:44.213Z,101513.92
2018-09-05T08:36:13.132Z,101517.78
2018-09-05T08:38:41.836Z,101516.27
2018-09-05T08:41:11.733Z,101518.24
2018-09-05T08:43:41.502Z,101516.54
2018-09-05T08:46:10.268Z,101519.17
2018-09-05T08:48:39.177Z,101525.69
2018-09-05T08:51:07.762Z,101519.27
2018-09-05T08:53:36.410Z,101522.52
2018-09-05T08:56:05.148Z,101527.32
2018-09-05T08:58:33.782Z,101524.50
2018-09-05T09:01:02.869Z,101520.46
2018-09-05T09:03:31.529Z,101520.73
2018-09-05T09:06:00.211Z,101527.91
2018-09-05T09:08:29.106Z,101520.58
2018-09-05T09:10:57.733Z,101524.33
2018-09-05T09:13:26.369Z,101516.69
2018-09-05T09:15:55.172Z,101523.89
2018-09-05T09:18:24.167Z,101519.92
2018-09-05T09:20:54.283Z,101519.33
2018-09-05T09:23:23.052Z,101511.59
2018-09-05T09:25:51.742Z,101513.27
2018-09-05T09:28:20.373Z,101513.55
2018-09-05T09:30:49.060Z,101508.86
2018-09-05T09:33:17.706Z,101511.70
2018-09-05T09:35:47.261Z,101509.27
2018-09-05T09:38:15.951Z,101503.50
2018-09-05T09:40:44.911Z,101501.34
2018-09-05T09:43:13.597Z,101497.89
2018-09-05T09:45:42.568Z,101492.20
2018-09-05T09:48:11.205Z,101488.14
2018-09-05T09:50:40.978Z,101483.88
2018-09-05T09:53:09.656Z,101478.97
2018-09-05T09:55:38.344Z,101478.41
2018-09-05T09:58:06.994Z,101481.90
2018-09-05T10:00:40.869Z,101477.01
2018-09-05T10:04:14.409Z,101473.40
2018-09-05T10:06:47.243Z,101476.95
2018-09-05T10:09:21.176Z,101476.18
2018-09-05T10:11:54.984Z,101470.43
2018-09-05T10:14:28.752Z,101476.30
2018-09-05T10:17:02.670Z,101467.20
2018-09-05T10:19:31.402Z,101467.05
2018-09-05T10:22:00.107Z,101467.31
2018-09-05T10:24:28.994Z,101464.48
2018-09-05T10:26:57.806Z,101466.16
2018-09-05T10:29:26.421Z,101467.02
2018-09-05T10:31:55.094Z,101464.64
2018-09-05T10:34:23.769Z,101457.91
2018-09-05T10:36:52.433Z,101461.73
2018-09-05T10:39:21.098Z,101457.41
2018-09-05T10:41:49.770Z,101455.76
2018-09-05T10:44:18.506Z,101455.55
2018-09-05T10:46:47.158Z,101458.20
2018-09-05T10:49:15.937Z,101449.59
2018-09-05T10:51:49.885Z,101451.33
2018-09-05T10:54:18.565Z,101454.51
2018-09-05T10:56:47.208Z,101446.48
2018-09-05T10:59:15.987Z,101445.66
2018-09-05T11:01:44.644Z,101445.28
2018-09-05T11:04:13.326Z,101438.08
2018-09-05T11:06:41.990Z,101437.45
2018-09-05T11:09:12.487Z,101432.33
2018-09-05T11:11:41.212Z,101432.54
2018-09-05T11:14:10.831Z,101428.25
2018-09-05T11:16:39.971Z,101425.48
2018-09-05T11:19:09.363Z,101428.56
2018-09-05T11:21:38.312Z,101430.50
2018-09-05T11:24:07.448Z,101419.67
2018-09-05T11:26:36.169Z,101423.39
2018-09-05T11:29:04.927Z,101423.82
2018-09-05T11:31:33.549Z,101421.58
2018-09-05T11:34:02.958Z,101420.97
2018-09-05T11:36:31.618Z,101428.27
2018-09-05T11:39:00.245Z,101424.59
2018-09-05T11:41:28.919Z,101421.66
2018-09-05T11:43:57.623Z,101428.03
2018-09-05T11:46:26.306Z,101424.67
2018-09-05T11:48:54.978Z,101417.97
2018-09-05T11:51:23.718Z,101415.19
2018-09-05T11:53:52.367Z,101418.14
2018-09-05T11:56:21.067Z,101416.73
2018-09-05T11:58:49.925Z,101413.22
2018-09-05T12:01:18.637Z,101417.96
2018-09-05T12:03:47.307Z,101417.84
2018-09-05T12:06:16.016Z,101417.09
2018-09-05T12:08:44.720Z,101406.31
2018-09-05T12:11:13.360Z,101421.09
2018-09-05T12:13:42.014Z,101407.23
2018-09-05T12:16:10.764Z,101402.98
2018-09-05T12:18:39.399Z,101405.50
2018-09-05T12:21:08.129Z,101410.20
2018-09-05T12:23:36.875Z,101397.06
2018-09-05T12:26:05.548Z,101397.11
2018-09-05T12:28:34.389Z,101392.20
2018-09-05T12:31:04.276Z,101388.91
2018-09-05T12:33:32.956Z,101398.83
2018-09-05T12:36:01.649Z,101388.97
2018-09-05T12:38:30.658Z,101385.08
2018-09-05T12:40:59.421Z,101383.36
2018-09-05T12:43:28.147Z,101382.42
2018-09-05T12:45:56.894Z,101375.28
2018-09-05T12:48:25.916Z,101374.08
2018-09-05T12:50:55.329Z,101380.45
2018-09-05T12:53:24.115Z,101371.53
2018-09-05T12:55:58.128Z,101363.99
2018-09-05T12:58:28.775Z,101362.72
2018-09-05T13:00:57.511Z,101363.35
2018-09-05T13:03:26.289Z,101352.43
2018-09-05T13:05:55.002Z,101359.97
2018-09-05T13:08:23.708Z,101355.92
2018-09-05T13:10:52.633Z,101359.03
2018-09-05T13:13:21.342Z,101357.17
2018-09-05T13:15:50.077Z,101357.27
2018-09-05T13:18:18.736Z,101356.16
2018-09-05T13:20:47.614Z,101360.68
2018-09-05T13:23:16.255Z,101355.11
2018-09-05T13:25:44.905Z,101351.09
2018-09-05T13:28:13.579Z,101347.09
2018-09-05T13:30:42.309Z,101340.23
2018-09-05T13:33:11.216Z,101348.70
2018-09-05T13:35:39.889Z,101344.66
2018-09-05T13:38:08.989Z,101335.92
2018-09-05T13:40:37.802Z,101339.89
2018-09-05T13:43:06.522Z,101338.00
2018-09-05T13:45:35.168Z,101335.66
2018-09-05T13:48:03.829Z,101339.84
2018-09-05T13:50:34.419Z,101336.48
2018-09-05T13:53:03.100Z,101336.00
2018-09-05T13:55:32.007Z,101322.87
2018-09-05T13:58:00.669Z,101331.64
2018-09-05T14:00:29.685Z,101324.13
2018-09-05T14:02:58.597Z,101323.89
2018-09-05T14:05:27.527Z,101317.76
2018-09-05T14:07:56.285Z,101325.53
2018-09-05T14:10:25.053Z,101317.75
2018-09-05T14:12:53.814Z,101314.25
2018-09-05T14:15:22.460Z,101310.33
2018-09-05T14:17:51.351Z,101310.31
2018-09-05T14:20:20.753Z,101308.21
2018-09-05T14:22:49.435Z,101309.16
2018-09-05T14:25:18.076Z,101308.08
2018-09-05T14:27:46.764Z,101304.57
2018-09-05T14:30:15.464Z,101300.94
2018-09-05T14:32:44.629Z,101307.59
2018-09-05T14:35:13.446Z,101304.38
2018-09-05T14:37:42.298Z,101304.83
2018-09-05T14:40:11.256Z,101306.06
2018-09-05T14:42:39.796Z,101294.60
2018-09-05T14:45:08.836Z,101300.75
2018-09-05T14:47:37.468Z,101301.58
2018-09-05T14:50:06.579Z,101303.63
2018-09-05T14:52:35.282Z,101297.40
2018-09-05T14:55:04.035Z,101290.97
2018-09-05T14:57:32.740Z,101294.06
2018-09-05T15:00:01.421Z,101290.86
2018-09-05T15:02:30.245Z,101287.70
2018-09-05T15:04:59.395Z,101285.27
2018-09-05T15:07:28.046Z,101292.73
2018-09-05T15:10:08.493Z,101286.97
2018-09-05T15:12:37.212Z,101281.64
2018-09-05T15:15:06.022Z,101282.78
2018-09-05T15:17:34.849Z,101284.87
2018-09-05T15:20:03.524Z,101282.23
2018-09-05T15:22:32.185Z,101283.69
2018-09-05T15:25:00.836Z,101282.89
2018-09-05T15:27:29.567Z,101282.19
2018-09-05T15:29:58.435Z,101277.37
2018-09-05T15:32:27.118Z,101275.02
2018-09-05T15:34:55.768Z,101273.44
2018-09-05T15:37:24.719Z,101268.64
2018-09-05T15:39:53.633Z,101266.97
2018-09-05T15:42:22.740Z,101261.92
2018-09-05T15:44:51.429Z,101257.33
2018-09-05T15:47:20.073Z,101263.75
2018-09-05T15:49:48.770Z,101260.20
2018-09-05T15:52:17.487Z,101258.38
2018-09-05T15:54:46.169Z,101260.53
2018-09-05T15:57:15.095Z,101262.69
2018-09-05T15:59:43.794Z,101262.45
2018-09-05T16:02:12.549Z,101260.72
2018-09-05T16:04:41.245Z,101263.98
2018-09-05T16:07:09.861Z,101259.91
2018-09-05T16:09:38.912Z,101253.28
2018-09-05T16:12:07.637Z,101250.45
2018-09-05T16:14:36.268Z,101248.48
2018-09-05T16:17:04.923Z,101255.75
2018-09-05T16:19:33.558Z,101249.72
2018-09-05T16:22:02.280Z,101247.66
2018-09-05T16:24:30.963Z,101242.72
2018-09-05T16:26:59.654Z,101244.31
2018-09-05T16:29:28.306Z,101236.78
2018-09-05T16:31:57.015Z,101243.56
2018-09-05T16:34:25.711Z,101239.17
2018-09-05T16:36:54.371Z,101237.70
2018-09-05T16:39:23.229Z,101234.66
2018-09-05T16:41:51.949Z,101238.34
2018-09-05T16:44:20.652Z,101235.23
2018-09-05T16:46:49.323Z,101236.81
2018-09-05T16:49:18.223Z,101235.09
2018-09-05T16:51:46.903Z,101237.35
2018-09-05T16:54:15.644Z,101239.43
2018-09-05T16:56:44.320Z,101240.53
2018-09-05T16:59:13.183Z,101239.46
2018-09-05T17:01:41.873Z,101235.41
2018-09-05T17:04:10.554Z,101237.73
2018-09-05T17:06:39.209Z,101241.45
2018-09-05T17:09:11.099Z,101234.35
2018-09-05T17:11:39.844Z,101233.67
2018-09-05T17:14:08.527Z,101233.18
2018-09-05T17:16:37.290Z,101230.67
2018-09-05T17:19:06.099Z,101230.48
2018-09-05T17:21:35.209Z,101225.11
2018-09-05T17:24:03.935Z,101228.34
2018-09-05T17:26:32.545Z,101230.69
2018-09-05T17:29:01.179Z,101237.97
2018-09-05T17:31:29.838Z,101238.03
2018-09-05T17:33:58.583Z,101240.47
2018-09-05T17:36:27.341Z,101242.80
2018-09-05T17:38:56.022Z,101241.45
2018-09-05T17:41:24.679Z,101247.60
2018-09-05T17:43:53.464Z,101251.75
2018-09-05T17:46:22.218Z,101248.95
2018-09-05T17:48:51.080Z,101243.78
2018-09-05T17:51:19.818Z,101244.98
2018-09-05T17:53:48.671Z,101244.59
2018-09-05T17:56:17.389Z,101249.42
2018-09-05T17:58:46.166Z,101245.17
2018-09-05T18:01:17.802Z,101244.31
2018-09-05T18:03:46.586Z,101241.78
2018-09-05T18:06:15.353Z,101246.45
2018-09-05T18:08:45.340Z,101244.57
2018-09-05T18:11:14.921Z,101242.19
2018-09-05T18:13:43.697Z,101243.83
2018-09-05T18:16:12.647Z,101248.45
2018-09-05T18:18:41.367Z,101241.59
2018-09-05T18:21:10.154Z,101250.03
2018-09-05T18:23:38.828Z,101249.34
2018-09-05T18:26:08.067Z,101249.27
2018-09-05T18:28:37.589Z,101246.87
2018-09-05T18:31:06.348Z,101240.11
2018-09-05T18:33:35.068Z,101250.91
2018-09-05T18:36:03.925Z,101252.93
2018-09-05T18:38:32.617Z,101260.38
2018-09-05T18:41:01.498Z,101254.91
2018-09-05T18:43:30.178Z,101262.94
2018-09-05T18:45:58.860Z,101260.58
2018-09-05T18:48:27.577Z,101260.62
2018-09-05T18:50:56.268Z,101254.32
2018-09-05T18:53:24.902Z,101250.26
2018-09-05T18:55:53.699Z,101258.69
2018-09-05T18:58:23.389Z,101270.00
2018-09-05T19:00:52.034Z,101260.07
2018-09-05T19:03:20.697Z,101260.11
2018-09-05T19:05:49.445Z,101259.31
2018-09-05T19:08:18.161Z,101261.91
2018-09-05T19:10:46.844Z,101256.49
2018-09-05T19:13:15.579Z,101258.77
2018-09-05T19:15:44.280Z,101252.73
2018-09-05T19:18:12.960Z,101255.28
2018-09-05T19:20:41.638Z,101254.94
2018-09-05T19:23:12.423Z,101253.59
2018-09-05T19:25:41.138Z,101252.53
2018-09-05T19:28:09.813Z,101255.66
2018-09-05T19:30:42.139Z,101247.70
2018-09-05T19:33:10.892Z,101248.50
2018-09-05T19:35:39.759Z,101244.70
2018-09-05T19:38:08.521Z,101245.60
2018-09-05T19:40:37.284Z,101245.08
2018-09-05T19:43:06.250Z,101245.91
2018-09-05T19:45:34.907Z,101245.11
2018-09-05T19:48:03.805Z,101249.03
2018-09-05T19:50:32.563Z,101243.01
2018-09-05T19:53:01.213Z,101239.73
2018-09-05T19:55:29.863Z,101241.69
2018-09-05T19:57:58.572Z,101238.08
2018-09-05T20:00:27.214Z,101235.14
2018-09-05T20:02:55.872Z,101230.16
2018-09-05T20:05:24.512Z,101236.94
2018-09-05T20:07:53.235Z,101235.59
2018-09-05T20:10:22.928Z,101236.22
2018-09-05T20:12:51.587Z,101240.43
2018-09-05T20:15:21.392Z,101236.13
2018-09-05T20:17:50.016Z,101241.41
2018-09-05T20:20:18.678Z,101238.05
2018-09-05T20:22:47.375Z,101235.64
2018-09-05T20:25:16.257Z,101237.05
2018-09-05T20:27:44.969Z,101240.06
2018-09-05T20:30:13.573Z,101235.64
2018-09-05T20:32:42.208Z,101244.16
2018-09-05T20:35:10.855Z,101237.59
2018-09-05T20:37:39.760Z,101235.96
2018-09-05T20:40:08.553Z,101236.77
2018-09-05T20:42:37.184Z,101234.56
2018-09-05T20:45:06.172Z,101233.21
2018-09-05T20:47:34.964Z,101231.05
2018-09-05T20:50:03.688Z,101233.26
2018-09-05T20:52:32.353Z,101231.62
2018-09-05T20:55:01.334Z,101232.77
2018-09-05T20:57:30.000Z,101232.53
2018-09-05T20:59:58.626Z,101228.73
2018-09-05T21:02:27.472Z,101234.80
2018-09-05T21:04:56.162Z,101225.19
2018-09-05T21:07:25.176Z,101228.23
2018-09-05T21:09:53.840Z,101231.81
2018-09-05T21:12:22.455Z,101230.73
2018-09-05T21:14:51.108Z,101232.43
2018-09-05T21:17:19.942Z,101228.62
2018-09-05T21:19:48.812Z,101230.60
2018-09-05T21:22:17.886Z,101226.76
2018-09-05T21:24:46.698Z,101228.43
2018-09-05T21:27:15.370Z,101226.25
2018-09-05T21:29:44.479Z,101229.59
2018-09-05T21:32:13.113Z,101223.58
2018-09-05T21:34:41.764Z,101223.81
2018-09-05T21:37:10.394Z,101217.27
2018-09-05T21:39:39.030Z,101220.83
2018-09-05T21:42:07.685Z,101214.27
2018-09-05T21:44:36.317Z,101216.19
2018-09-05T21:47:05.002Z,101212.36
2018-09-05T21:49:33.792Z,101214.84
2018-09-05T21:52:02.488Z,101221.16
2018-09-05T21:54:31.162Z,101213.75
2018-09-05T21:56:59.775Z,101211.58
2018-09-05T21:59:28.420Z,101212.98
2018-09-05T22:01:57.068Z,101213.28
2018-09-05T22:04:25.705Z,101208.34
2018-09-05T22:06:54.551Z,101212.73
2018-09-05T22:09:23.883Z,101210.80
2018-09-05T22:11:52.506Z,101213.30
2018-09-05T22:14:21.132Z,101216.55
2018-09-05T22:16:49.787Z,101208.08
2018-09-05T22:19:18.399Z,101204.22
2018-09-05T22:21:46.996Z,101204.23
2018-09-05T22:24:15.658Z,101206.09
2018-09-05T22:26:44.262Z,101205.01
2018-09-05T22:29:12.879Z,101206.09
2018-09-05T22:31:41.587Z,101197.30
2018-09-05T22:34:10.197Z,101198.96
2018-09-05T22:36:39.162Z,101197.84
2018-09-05T22:39:09.205Z,101200.05
2018-09-05T22:41:37.857Z,101201.92
2018-09-05T22:44:17.730Z,101197.55
2018-09-05T22:46:57.582Z,101195.59
2018-09-05T22:52:14.194Z,101196.69
2018-09-05T22:56:04.791Z,101190.66
2018-09-05T23:02:49.817Z,101181.31
2018-09-05T23:07:34.661Z,101186.25
2018-09-05T23:10:14.566Z,101181.84
2018-09-05T23:12:54.364Z,101173.05
2018-09-05T23:15:34.194Z,101173.86
2018-09-05T23:18:13.959Z,101167.55
2018-09-05T23:21:46.005Z,101160.95
2018-09-05T23:24:14.675Z,101159.26
2018-09-05T23:26:43.298Z,101149.94
2018-09-05T23:29:11.951Z,101152.64
2018-09-05T23:31:41.138Z,101141.14
2018-09-05T23:34:09.758Z,101140.31
2018-09-05T23:36:38.530Z,101138.58
2018-09-05T23:39:09.379Z,101130.94
2018-09-05T23:41:37.993Z,101135.00
2018-09-05T23:44:06.763Z,101127.05
2018-09-05T23:46:38.208Z,101132.78
2018-09-05T23:49:10.021Z,101123.16
2018-09-05T23:51:38.759Z,101122.03
2018-09-05T23:54:07.478Z,101123.38
2018-09-05T23:56:36.206Z,101118.42
2018-09-05T23:59:06.371Z,101117.31
